createdAt,value
2023-01-26T00:00:03.353Z,89.1
2023-01-26T00:03:03.496Z,89.1
2023-01-26T00:06:03.334Z,89.1
2023-01-26T00:09:03.349Z,89.1
2023-01-26T00:12:03.288Z,89.1
2023-01-26T00:15:03.291Z,89.1
2023-01-26T00:18:03.341Z,88.7
2023-01-26T00:21:03.808Z,88.7
2023-01-26T00:24:03.515Z,88.7
2023-01-26T00:27:03.338Z,88.7
2023-01-26T00:30:03.330Z,88.7
2023-01-26T00:33:03.309Z,88.7
2023-01-26T00:36:03.323Z,88.7
2023-01-26T00:39:03.291Z,88.7
2023-01-26T00:42:03.364Z,88.7
2023-01-26T00:45:03.383Z,88.7
2023-01-26T00:48:03.297Z,88.7
2023-01-26T00:51:03.336Z,88.7
2023-01-26T00:54:03.388Z,88.5
2023-01-26T00:57:03.324Z,88.5
2023-01-26T01:00:03.362Z,88.5
2023-01-26T01:03:03.356Z,88.5
2023-01-26T01:06:03.286Z,88.5
2023-01-26T01:09:03.360Z,88.5
2023-01-26T01:12:03.360Z,88.5
2023-01-26T01:15:03.321Z,88.5
2023-01-26T01:18:03.284Z,88
2023-01-26T01:21:03.304Z,88
2023-01-26T01:24:03.472Z,88
2023-01-26T01:27:03.374Z,88
2023-01-26T01:30:03.344Z,88
2023-01-26T01:33:03.367Z,88
2023-01-26T01:36:03.315Z,88.3
2023-01-26T01:39:03.539Z,88.3
2023-01-26T01:42:03.286Z,88.3
2023-01-26T01:45:03.327Z,88.3
2023-01-26T01:48:03.313Z,88.3
2023-01-26T01:51:03.287Z,88.3
2023-01-26T01:54:03.304Z,88.3
2023-01-26T01:57:03.303Z,88.3
2023-01-26T02:00:03.351Z,88.3
2023-01-26T02:03:03.349Z,88.6
2023-01-26T02:06:03.301Z,88.6
2023-01-26T02:09:03.377Z,88.6
2023-01-26T02:12:03.324Z,88.6
2023-01-26T02:15:03.461Z,88.7
2023-01-26T02:18:03.356Z,88.7
2023-01-26T02:21:03.347Z,88.7
2023-01-26T02:24:03.433Z,88.7
2023-01-26T02:27:03.327Z,88.7
2023-01-26T02:30:03.287Z,88.7
2023-01-26T02:33:03.373Z,88.7
2023-01-26T02:36:03.305Z,88.7
2023-01-26T02:39:03.289Z,88.7
2023-01-26T02:42:03.290Z,88.7
2023-01-26T02:45:03.346Z,88.7
2023-01-26T02:48:03.336Z,88.7
2023-01-26T02:51:03.335Z,88.7
2023-01-26T02:54:03.425Z,88.7
2023-01-26T02:57:03.323Z,88.7
2023-01-26T03:00:03.316Z,88.7
2023-01-26T03:03:03.326Z,88.7
2023-01-26T03:06:03.445Z,87.8
2023-01-26T03:09:03.361Z,87.8
2023-01-26T03:12:03.355Z,87.6
2023-01-26T03:15:03.445Z,87.6
2023-01-26T03:18:03.382Z,87.6
2023-01-26T03:21:03.319Z,87.6
2023-01-26T03:24:03.489Z,87.6
2023-01-26T03:27:03.334Z,87.6
2023-01-26T03:30:03.344Z,87.6
2023-01-26T03:33:03.305Z,87.6
2023-01-26T03:36:03.368Z,87.6
2023-01-26T03:39:03.385Z,87.6
2023-01-26T03:42:03.247Z,87.6
2023-01-26T03:45:03.365Z,87.6
2023-01-26T03:48:03.400Z,87.6
2023-01-26T03:51:03.366Z,87.6
2023-01-26T03:54:03.340Z,87.6
2023-01-26T03:57:03.264Z,87.6
2023-01-26T04:00:03.303Z,86.9
2023-01-26T04:03:03.355Z,86.9
2023-01-26T04:06:19.067Z,86.9
2023-01-26T04:09:03.298Z,86.9
2023-01-26T04:12:03.430Z,86.9
2023-01-26T04:15:03.341Z,86.9
2023-01-26T04:18:03.320Z,86.9
2023-01-26T04:21:03.378Z,86.9
2023-01-26T04:24:03.453Z,86.9
2023-01-26T04:27:03.304Z,86.9
2023-01-26T04:30:03.355Z,86.9
2023-01-26T04:33:03.323Z,86.9
2023-01-26T04:36:03.344Z,86.9
2023-01-26T04:39:03.427Z,86.9
2023-01-26T04:42:03.326Z,86.9
2023-01-26T04:45:03.539Z,86.9
2023-01-26T04:48:03.295Z,86.6
2023-01-26T04:51:03.352Z,86.6
2023-01-26T04:54:03.355Z,86.6
2023-01-26T04:57:03.335Z,86.6
2023-01-26T05:00:03.361Z,86.6
2023-01-26T05:03:03.297Z,86.6
2023-01-26T05:06:03.295Z,86.6
2023-01-26T05:09:03.341Z,86.6
2023-01-26T05:12:03.293Z,86.6
2023-01-26T05:15:03.280Z,86.6
2023-01-26T05:18:03.425Z,86.6
2023-01-26T05:21:03.431Z,86.6
2023-01-26T05:24:03.482Z,86.6
2023-01-26T05:27:03.275Z,86.6
2023-01-26T05:30:03.514Z,86.6
2023-01-26T05:33:03.352Z,86.6
2023-01-26T05:36:03.338Z,86.6
2023-01-26T05:39:03.280Z,86.6
2023-01-26T05:42:03.281Z,86.6
2023-01-26T05:45:03.363Z,86.6
2023-01-26T05:48:03.307Z,86.6
2023-01-26T05:51:06.387Z,86.4
2023-01-26T05:54:03.342Z,86.4
2023-01-26T05:57:03.306Z,86.4
2023-01-26T06:00:03.315Z,86.4
2023-01-26T06:03:03.315Z,86.4
2023-01-26T06:06:03.387Z,86.4
2023-01-26T06:09:03.329Z,86.4
2023-01-26T06:12:03.347Z,86.4
2023-01-26T06:15:03.309Z,86.4
2023-01-26T06:18:03.298Z,86.4
2023-01-26T06:21:03.391Z,86.4
2023-01-26T06:24:03.571Z,86.4
2023-01-26T06:27:03.295Z,86.4
2023-01-26T06:30:03.404Z,86.4
2023-01-26T06:33:03.279Z,86.4
2023-01-26T06:36:03.315Z,86.4
2023-01-26T06:39:03.511Z,86.4
2023-01-26T06:42:03.329Z,86.4
2023-01-26T06:45:03.353Z,86.5
2023-01-26T06:48:03.312Z,86.5
2023-01-26T06:51:03.293Z,86.5
2023-01-26T06:54:03.368Z,86.5
2023-01-26T06:57:03.432Z,86.5
2023-01-26T07:00:03.385Z,86.5
2023-01-26T07:03:03.334Z,86.5
2023-01-26T07:06:03.357Z,86.5
2023-01-26T07:09:03.520Z,86.5
2023-01-26T07:12:03.387Z,86.5
2023-01-26T07:15:03.394Z,86.5
2023-01-26T07:18:03.447Z,86.5
2023-01-26T07:21:03.473Z,86.5
2023-01-26T07:24:03.526Z,86.5
2023-01-26T07:27:03.388Z,86.5
2023-01-26T07:30:03.557Z,86.5
2023-01-26T07:33:03.419Z,86.5
2023-01-26T07:36:03.591Z,86.5
2023-01-26T07:39:03.526Z,86.5
2023-01-26T07:42:03.568Z,86.5
2023-01-26T07:45:03.467Z,89.3
2023-01-26T07:48:03.413Z,89.3
2023-01-26T07:51:03.401Z,89.3
2023-01-26T07:54:03.355Z,89.3
2023-01-26T07:57:03.621Z,89.3
2023-01-26T08:00:04.106Z,89.7
2023-01-26T08:03:04.179Z,89.7
2023-01-26T08:06:03.792Z,89.7
2023-01-26T08:09:03.547Z,89.7
2023-01-26T08:12:03.607Z,89.7
2023-01-26T08:15:03.497Z,89.7
2023-01-26T08:18:03.428Z,89.7
2023-01-26T08:21:03.368Z,89.7
2023-01-26T08:24:03.641Z,89.7
2023-01-26T08:27:03.393Z,89.7
2023-01-26T08:30:03.647Z,89.7
2023-01-26T08:33:03.892Z,89.7
2023-01-26T08:36:03.888Z,89.7
2023-01-26T08:39:03.539Z,89.7
2023-01-26T08:42:03.797Z,89.7
2023-01-26T08:45:03.816Z,90.1
2023-01-26T08:48:03.675Z,90.1
2023-01-26T08:51:03.535Z,90.1
2023-01-26T08:54:03.466Z,90.1
2023-01-26T08:57:03.744Z,90.2
2023-01-26T09:00:04.008Z,90.2
2023-01-26T09:03:04.075Z,90.2
2023-01-26T09:06:03.780Z,90.2
2023-01-26T09:09:04.215Z,90.2
2023-01-26T09:12:04.402Z,90.2
2023-01-26T09:15:04.101Z,90.2
2023-01-26T09:18:03.741Z,90.2
2023-01-26T09:21:03.738Z,90.2
2023-01-26T09:24:04.051Z,90.2
2023-01-26T09:27:03.644Z,90.2
2023-01-26T09:30:03.639Z,90.2
2023-01-26T09:33:03.558Z,90.2
2023-01-26T09:36:03.415Z,90.2
2023-01-26T09:39:04.261Z,90.2
2023-01-26T09:42:03.395Z,90.2
2023-01-26T09:45:03.402Z,90.2
2023-01-26T09:48:03.582Z,90.3
2023-01-26T09:51:03.553Z,90.3
2023-01-26T09:54:03.408Z,90.3
2023-01-26T09:57:03.566Z,90.3
2023-01-26T10:00:03.516Z,90.3
2023-01-26T10:03:03.731Z,90.3
2023-01-26T10:06:03.360Z,90.3
2023-01-26T10:09:03.403Z,90.3
2023-01-26T10:12:03.397Z,90.3
2023-01-26T10:15:03.399Z,90.3
2023-01-26T10:18:03.447Z,90.4
2023-01-26T10:21:03.390Z,90.4
2023-01-26T10:24:03.629Z,90.4
2023-01-26T10:27:03.418Z,90.4
2023-01-26T10:30:03.558Z,90.4
2023-01-26T10:33:03.387Z,90.4
2023-01-26T10:36:03.408Z,90.4
2023-01-26T10:39:03.445Z,90.4
2023-01-26T10:42:03.499Z,90.4
2023-01-26T10:45:03.365Z,90.4
2023-01-26T10:48:03.451Z,90.8
2023-01-26T10:51:04.812Z,90.8
2023-01-26T10:54:03.387Z,90.8
2023-01-26T10:57:03.396Z,90.8
2023-01-26T11:00:03.865Z,90.8
2023-01-26T11:03:03.577Z,90.8
2023-01-26T11:06:03.639Z,90.8
2023-01-26T11:09:03.762Z,90.8
2023-01-26T11:12:03.628Z,90.8
2023-01-26T11:15:03.972Z,90.8
2023-01-26T11:18:03.384Z,90.8
2023-01-26T11:21:03.659Z,90.8
2023-01-26T11:24:03.462Z,90.8
2023-01-26T11:27:03.419Z,90.7
2023-01-26T11:30:03.543Z,90.7
2023-01-26T11:33:03.476Z,90.7
2023-01-26T11:36:03.350Z,90.7
2023-01-26T11:39:03.402Z,90.6
2023-01-26T11:42:03.851Z,90.6
2023-01-26T11:45:03.479Z,90.6
2023-01-26T11:48:03.416Z,90.6
2023-01-26T11:51:05.404Z,90.6
2023-01-26T11:54:03.439Z,90.6
2023-01-26T11:57:03.389Z,90.6
2023-01-26T12:00:03.513Z,90.6
2023-01-26T12:03:03.584Z,90.6
2023-01-26T12:06:03.425Z,90.6
2023-01-26T12:09:03.874Z,90.6
2023-01-26T12:12:03.457Z,90.6
2023-01-26T12:15:05.866Z,90.6
2023-01-26T12:18:03.345Z,90.6
2023-01-26T12:21:03.407Z,90.6
2023-01-26T12:24:03.577Z,90.6
2023-01-26T12:27:03.389Z,90.6
2023-01-26T12:30:03.374Z,90.6
2023-01-26T12:33:03.344Z,90.9
2023-01-26T12:36:03.392Z,90.9
2023-01-26T12:39:03.678Z,90.9
2023-01-26T12:42:03.579Z,90.9
2023-01-26T12:45:03.322Z,90.9
2023-01-26T12:48:03.460Z,90.9
2023-01-26T12:51:03.387Z,90.9
2023-01-26T12:54:03.420Z,90.9
2023-01-26T12:57:03.400Z,90.9
2023-01-26T13:00:03.445Z,90.9
2023-01-26T13:03:03.388Z,90.9
2023-01-26T13:06:03.367Z,90.9
2023-01-26T13:09:03.428Z,90.9
2023-01-26T13:12:03.400Z,90.9
2023-01-26T13:15:05.582Z,90.9
2023-01-26T13:18:03.364Z,90.9
2023-01-26T13:21:03.427Z,90.9
2023-01-26T13:24:03.493Z,90.9
2023-01-26T13:27:03.326Z,90.9
2023-01-26T13:30:03.456Z,90.9
2023-01-26T13:33:03.315Z,90.5
2023-01-26T13:36:03.392Z,90.5
2023-01-26T13:39:03.394Z,90.5
2023-01-26T13:42:03.426Z,90.5
2023-01-26T13:45:03.422Z,90.5
2023-01-26T13:48:03.891Z,90.5
2023-01-26T13:51:03.351Z,90.5
2023-01-26T13:54:03.324Z,90.5
2023-01-26T13:57:03.431Z,90.5
2023-01-26T14:00:03.606Z,90.5
2023-01-26T14:03:03.478Z,90.5
2023-01-26T14:06:03.384Z,90.5
2023-01-26T14:09:03.361Z,90.5
2023-01-26T14:12:03.528Z,90.5
2023-01-26T14:15:03.441Z,90.5
2023-01-26T14:18:03.432Z,90.5
2023-01-26T14:21:03.609Z,90.5
2023-01-26T14:24:03.597Z,90.5
2023-01-26T14:27:03.451Z,91.5
2023-01-26T14:30:03.514Z,91.5
2023-01-26T14:33:03.360Z,91.5
2023-01-26T14:36:03.515Z,91.5
2023-01-26T14:39:03.422Z,91.5
2023-01-26T14:42:03.405Z,91.5
2023-01-26T14:45:03.473Z,91.8
2023-01-26T14:48:03.380Z,91.8
2023-01-26T14:51:03.327Z,91.8
2023-01-26T14:54:03.586Z,91.8
2023-01-26T14:57:03.364Z,91.8
2023-01-26T15:00:03.454Z,91.8
2023-01-26T15:03:03.334Z,91.8
2023-01-26T15:06:03.403Z,91.8
2023-01-26T15:09:03.452Z,91.8
2023-01-26T15:12:03.357Z,91.8
2023-01-26T15:15:03.360Z,91.8
2023-01-26T15:18:03.930Z,91.8
2023-01-26T15:21:03.515Z,92.2
2023-01-26T15:24:03.471Z,92.2
2023-01-26T15:27:03.528Z,92.2
2023-01-26T15:30:03.330Z,92.2
2023-01-26T15:33:03.552Z,92.2
2023-01-26T15:36:03.349Z,92.2
2023-01-26T15:39:03.346Z,92.2
2023-01-26T15:42:03.350Z,92.2
2023-01-26T15:45:03.345Z,92.2
2023-01-26T15:48:03.374Z,92.2
2023-01-26T15:51:03.370Z,92.2
2023-01-26T15:54:03.443Z,92.2
2023-01-26T15:57:03.403Z,92.2
2023-01-26T16:00:03.582Z,92.2
2023-01-26T16:03:03.268Z,92.2
2023-01-26T16:06:03.304Z,92.2
2023-01-26T16:09:03.343Z,92.2
2023-01-26T16:12:03.356Z,92.5
2023-01-26T16:15:03.355Z,92.5
2023-01-26T16:18:03.365Z,92.5
2023-01-26T16:21:03.331Z,92.5
2023-01-26T16:24:03.513Z,92.5
2023-01-26T16:27:03.361Z,92.5
2023-01-26T16:30:03.372Z,92.5
2023-01-26T16:33:03.355Z,92.5
2023-01-26T16:36:03.931Z,92.5
2023-01-26T16:39:03.315Z,92.5
2023-01-26T16:42:03.496Z,92.5
2023-01-26T16:45:03.437Z,92.5
2023-01-26T16:48:03.331Z,92.5
2023-01-26T16:51:03.349Z,92.5
2023-01-26T16:54:03.284Z,92.5
2023-01-26T16:57:03.425Z,92.5
2023-01-26T17:00:03.409Z,92.5
2023-01-26T17:03:03.402Z,92.5
2023-01-26T17:06:03.283Z,92.5
2023-01-26T17:09:03.447Z,92.5
2023-01-26T17:12:03.339Z,92.6
2023-01-26T17:15:03.333Z,92.6
2023-01-26T17:18:03.328Z,92.6
2023-01-26T17:21:03.288Z,92.6
2023-01-26T17:24:03.502Z,92.6
2023-01-26T17:27:03.302Z,92.6
2023-01-26T17:30:03.309Z,92.6
2023-01-26T17:33:03.363Z,92.6
2023-01-26T17:36:03.452Z,92.6
2023-01-26T17:39:03.321Z,92.6
2023-01-26T17:42:03.334Z,92.6
2023-01-26T17:45:03.372Z,92.6
2023-01-26T17:48:03.576Z,92.6
2023-01-26T17:51:03.308Z,92.6
2023-01-26T17:54:03.394Z,92.6
2023-01-26T17:57:03.371Z,92.6
2023-01-26T18:00:03.454Z,92.6
2023-01-26T18:03:03.354Z,92.6
2023-01-26T18:06:03.317Z,92.6
2023-01-26T18:09:03.433Z,92.6
2023-01-26T18:12:03.423Z,92.6
2023-01-26T18:15:03.470Z,92.6
2023-01-26T18:18:03.289Z,92.6
2023-01-26T18:21:03.340Z,92.6
2023-01-26T18:24:03.472Z,92.6
2023-01-26T18:27:03.390Z,92.6
2023-01-26T18:30:03.677Z,92.6
2023-01-26T18:33:03.365Z,92.6
2023-01-26T18:36:03.346Z,92.6
2023-01-26T18:39:03.369Z,92.6
2023-01-26T18:42:03.495Z,92.6
2023-01-26T18:45:03.378Z,92.6
2023-01-26T18:48:04.134Z,92.9
2023-01-26T18:51:03.645Z,92.9
2023-01-26T18:54:03.547Z,92.9
2023-01-26T18:57:04.305Z,92.9
2023-01-26T19:00:04.361Z,92.9
2023-01-26T19:03:03.292Z,92.9
2023-01-26T19:06:03.363Z,92.9
2023-01-26T19:09:03.825Z,92.9
2023-01-26T19:12:04.110Z,92.9
2023-01-26T19:15:03.614Z,92.9
2023-01-26T19:18:03.871Z,92.9
2023-01-26T19:21:03.547Z,92.9
2023-01-26T19:24:03.990Z,92.9
2023-01-26T19:27:03.668Z,93.5
2023-01-26T19:30:03.592Z,93.5
2023-01-26T19:33:03.542Z,93.5
2023-01-26T19:36:04.075Z,93.5
2023-01-26T19:39:03.417Z,93.5
2023-01-26T19:42:03.826Z,93.7
2023-01-26T19:45:03.832Z,93.7
2023-01-26T19:48:03.461Z,93.7
2023-01-26T19:51:03.425Z,93.7
2023-01-26T19:54:03.415Z,93.7
2023-01-26T19:57:03.372Z,93.7
2023-01-26T20:00:03.372Z,93.7
2023-01-26T20:03:03.397Z,93.7
2023-01-26T20:06:03.344Z,93.7
2023-01-26T20:09:03.365Z,93.7
2023-01-26T20:12:03.334Z,93.7
2023-01-26T20:15:03.485Z,93.7
2023-01-26T20:18:03.420Z,93.7
2023-01-26T20:21:03.705Z,93.7
2023-01-26T20:24:09.186Z,93.7
2023-01-26T20:27:03.378Z,93.7
2023-01-26T20:30:03.506Z,93.7
2023-01-26T20:33:03.363Z,93.7
2023-01-26T20:36:03.393Z,94
2023-01-26T20:39:03.393Z,94
2023-01-26T20:42:03.333Z,94
2023-01-26T20:45:03.427Z,94
2023-01-26T20:48:03.451Z,94
2023-01-26T20:51:03.356Z,94
2023-01-26T20:54:03.376Z,94
2023-01-26T20:57:03.344Z,94
2023-01-26T21:00:03.791Z,94
2023-01-26T21:03:03.532Z,94
2023-01-26T21:06:03.362Z,94
2023-01-26T21:09:03.429Z,94
2023-01-26T21:12:03.402Z,94
2023-01-26T21:15:03.397Z,94
2023-01-26T21:18:03.343Z,94
2023-01-26T21:21:03.438Z,94
2023-01-26T21:24:03.808Z,94
2023-01-26T21:27:03.322Z,94
2023-01-26T21:30:03.452Z,94.3
2023-01-26T21:33:03.572Z,94.3
2023-01-26T21:36:03.434Z,94.3
2023-01-26T21:39:03.359Z,94.3
2023-01-26T21:42:03.373Z,94.3
2023-01-26T21:45:03.502Z,94.3
2023-01-26T21:48:03.396Z,94.3
2023-01-26T21:51:03.572Z,94.3
2023-01-26T21:54:03.653Z,94.3
2023-01-26T21:57:03.651Z,94.3
2023-01-26T22:00:04.028Z,94.3
2023-01-26T22:03:03.467Z,94.3
2023-01-26T22:06:03.363Z,94.3
2023-01-26T22:09:03.683Z,94.3
2023-01-26T22:12:03.426Z,94.3
2023-01-26T22:15:03.775Z,94.3
2023-01-26T22:18:03.376Z,94.3
2023-01-26T22:21:04.846Z,94.3
2023-01-26T22:24:03.493Z,94.3
2023-01-26T22:27:03.351Z,94.6
2023-01-26T22:30:03.572Z,94.6
2023-01-26T22:33:03.476Z,94.6
2023-01-26T22:36:03.388Z,94.6
2023-01-26T22:39:03.407Z,94.6
2023-01-26T22:42:03.330Z,94.6
2023-01-26T22:45:03.408Z,94.6
2023-01-26T22:48:03.347Z,94.6
2023-01-26T22:51:03.303Z,94.6
2023-01-26T22:54:03.412Z,94.6
2023-01-26T22:57:03.277Z,94.6
2023-01-26T23:00:04.805Z,94.6
2023-01-26T23:03:03.317Z,94.6
2023-01-26T23:06:03.396Z,94.6
2023-01-26T23:09:03.555Z,94.6
2023-01-26T23:12:03.314Z,94.6
2023-01-26T23:15:03.231Z,94.6
2023-01-26T23:18:03.324Z,94.7
2023-01-26T23:21:03.309Z,94.7
2023-01-26T23:24:03.564Z,94.7
2023-01-26T23:27:03.418Z,94.7
2023-01-26T23:30:05.874Z,94.7
2023-01-26T23:33:03.268Z,94.7
2023-01-26T23:36:03.310Z,94.7
2023-01-26T23:39:03.340Z,94.7
2023-01-26T23:42:03.272Z,94.7
2023-01-26T23:45:03.282Z,94.7
2023-01-26T23:48:03.298Z,94.7
2023-01-26T23:51:03.437Z,94.7
2023-01-26T23:54:03.298Z,94.7
2023-01-26T23:57:03.316Z,94.7
